Time;durP1;ratioP1;P1;durP2;ratioP2;P2;SDS_P1;SDS_P2;PMS_P1;PMS_P2;Temp;Humidity;BMP_temperature;BMP_pressure;BME280_temperature;BME280_humidity;BME280_pressure;Samples;Min_cycle;Max_cycle;Signal;HPM_P1;HPM_P2
2020/12/11 00:00:47;;;;;;;3.53;0.80;;;11.00;99.90;;;10.17;100.00;99064.13;4153165;28;20618;-73
2020/12/11 00:02:48;;;;;;;1.23;0.82;;;11.00;99.90;;;10.10;100.00;99050.06;4137081;28;20026;-73
2020/12/11 00:04:49;;;;;;;3.53;0.90;;;10.90;99.90;;;10.22;100.00;99065.19;4153254;28;20477;-73
2020/12/11 00:06:50;;;;;;;1.40;0.82;;;11.00;99.90;;;10.14;100.00;99049.53;4154401;28;20028;-73
2020/12/11 00:08:51;;;;;;;1.15;1.00;;;11.00;99.90;;;10.15;100.00;99043.28;4169717;28;20029;-73
2020/12/11 00:10:52;;;;;;;1.77;0.80;;;11.00;99.90;;;10.22;100.00;99038.81;4169431;28;20031;-73
2020/12/11 00:12:53;;;;;;;1.52;0.80;;;11.00;99.90;;;10.26;100.00;99032.16;4152680;28;20049;-73
2020/12/11 00:14:54;;;;;;;2.00;1.20;;;11.00;99.90;;;10.20;100.00;99026.84;4152967;28;20559;-73
2020/12/11 00:16:55;;;;;;;1.50;0.80;;;11.00;99.90;;;10.18;100.00;99031.53;4136990;28;20063;-73
2020/12/11 00:18:56;;;;;;;0.95;0.90;;;11.00;99.90;;;10.24;100.00;99036.00;4160189;28;20032;-73
2020/12/11 00:21:00;;;;;;;2.45;0.82;;;11.10;99.90;;;10.21;100.00;99023.22;4158500;28;20133;-73
2020/12/11 00:23:04;;;;;;;1.95;1.13;;;11.10;99.90;;;10.30;100.00;99040.50;4152078;28;20030;-73
2020/12/11 00:25:05;;;;;;;3.33;1.42;;;11.10;99.90;;;10.48;100.00;99032.88;4169409;28;20079;-73
2020/12/11 00:27:06;;;;;;;2.00;1.17;;;11.10;99.90;;;10.33;100.00;99019.84;4169126;28;20021;-73
2020/12/11 00:29:07;;;;;;;1.17;0.88;;;11.10;99.90;;;10.38;100.00;99012.16;4152559;28;20059;-73
2020/12/11 00:31:08;;;;;;;0.98;0.88;;;11.20;99.90;;;10.50;100.00;99015.84;4135021;28;20027;-73
2020/12/11 00:33:08;;;;;;;1.50;0.80;;;11.20;99.90;;;10.54;100.00;99024.97;4151428;28;20072;-73
2020/12/11 00:35:09;;;;;;;2.15;0.90;;;11.20;99.90;;;10.59;100.00;99016.47;4136321;28;20084;-73
2020/12/11 00:37:10;;;;;;;2.28;0.68;;;11.40;99.90;;;10.63;100.00;99006.38;4136521;28;20517;-73
2020/12/11 00:39:11;;;;;;;0.95;0.70;;;11.40;99.90;;;10.62;100.00;99005.53;4152777;28;20049;-74
2020/12/11 00:41:12;;;;;;;2.05;0.93;;;11.40;99.90;;;10.63;100.00;99004.53;4152646;28;20030;-73
2020/12/11 00:43:14;;;;;;;2.38;0.70;;;11.40;99.90;;;10.65;100.00;98993.78;4143851;28;20030;-74
2020/12/11 00:45:15;;;;;;;1.88;0.88;;;11.50;99.90;;;10.66;100.00;98988.31;4152545;28;20026;-73
2020/12/11 00:47:16;;;;;;;1.50;0.80;;;11.50;99.90;;;10.79;100.00;98976.97;4134369;28;20080;-73
2020/12/11 00:49:17;;;;;;;1.77;0.82;;;11.60;99.90;;;10.90;100.00;98963.22;4153773;28;20030;-74
2020/12/11 00:51:22;;;;;;;5.22;1.20;;;11.60;99.90;;;10.79;100.00;98967.25;4153724;28;20397;-74
2020/12/11 00:53:23;;;;;;;3.78;1.25;;;11.60;99.90;;;10.91;100.00;98960.34;4153383;28;20038;-73
2020/12/11 00:55:24;;;;;;;8.00;1.45;;;11.60;99.90;;;10.86;100.00;98957.53;4168568;28;20030;-73
2020/12/11 00:57:25;;;;;;;4.82;1.20;;;11.70;99.90;;;10.85;100.00;98947.97;4150191;28;20085;-73
2020/12/11 00:59:26;;;;;;;7.80;1.58;;;11.60;99.90;;;10.95;100.00;98956.31;4143677;28;20080;-73
2020/12/11 01:01:27;;;;;;;7.28;2.22;;;11.70;99.90;;;10.92;100.00;98951.44;4168598;28;20033;-74
2020/12/11 01:03:28;;;;;;;9.23;1.50;;;11.70;99.90;;;11.04;100.00;98949.00;4153199;28;20060;-74
2020/12/11 01:05:29;;;;;;;6.75;1.77;;;11.80;99.90;;;10.98;100.00;98939.25;4153366;28;20061;-74
2020/12/11 01:07:30;;;;;;;9.82;2.35;;;11.80;99.90;;;11.19;100.00;98939.06;4168600;28;20078;-73
2020/12/11 01:09:31;;;;;;;7.30;2.15;;;11.80;99.90;;;11.27;100.00;98933.56;4152214;28;20528;-74
2020/12/11 01:11:33;;;;;;;8.95;2.80;;;11.90;99.90;;;11.23;100.00;98936.84;4151980;28;20038;-73
2020/12/11 01:13:34;;;;;;;8.13;2.42;;;11.90;99.90;;;11.26;100.00;98923.22;4151850;28;20053;-74
2020/12/11 01:15:34;;;;;;;9.38;2.80;;;12.00;99.90;;;11.26;100.00;98931.16;4168543;28;20026;-73
2020/12/11 01:17:35;;;;;;;7.05;1.88;;;11.90;99.90;;;11.26;100.00;98925.88;4153222;28;20433;-74
2020/12/11 01:19:36;;;;;;;16.85;5.93;;;12.00;99.90;;;11.26;100.00;98931.16;4168347;28;20049;-73
2020/12/11 01:21:37;;;;;;;17.33;4.25;;;12.00;99.90;;;11.14;100.00;98917.72;4168377;28;20489;-74
2020/12/11 01:23:38;;;;;;;15.27;4.38;;;11.90;99.90;;;11.12;100.00;98914.50;4153226;28;20033;-74
2020/12/11 01:25:39;;;;;;;12.27;2.83;;;11.90;99.90;;;11.24;100.00;98925.25;4168307;28;20025;-74
2020/12/11 01:27:40;;;;;;;10.05;2.30;;;11.90;99.90;;;11.20;100.00;98919.56;4153067;28;20370;-74
2020/12/11 01:29:41;;;;;;;3.75;1.63;;;11.90;99.90;;;11.21;100.00;98913.28;4151517;28;20038;-74
2020/12/11 01:31:42;;;;;;;6.00;1.73;;;11.90;99.90;;;11.19;100.00;98932.97;4151616;28;20029;-74
2020/12/11 01:33:47;;;;;;;6.00;1.60;;;11.90;99.90;;;11.30;100.00;98925.25;4152668;28;20038;-74
2020/12/11 01:35:48;;;;;;;6.82;1.60;;;11.90;99.90;;;11.19;100.00;98938.25;4152933;28;20036;-73
2020/12/11 01:37:49;;;;;;;6.72;1.80;;;11.90;99.90;;;11.33;100.00;98937.22;4168118;28;20053;-73
2020/12/11 01:39:50;;;;;;;7.03;1.70;;;12.00;99.90;;;11.28;100.00;98948.41;4168084;28;20056;-74
2020/12/11 01:41:51;;;;;;;8.38;1.83;;;12.00;99.90;;;11.27;100.00;98951.22;4151541;28;20124;-74
2020/12/11 01:43:52;;;;;;;5.82;1.95;;;12.00;99.90;;;11.28;100.00;98939.66;4152481;28;20516;-73
2020/12/11 01:45:53;;;;;;;8.60;2.38;;;12.00;99.90;;;11.28;100.00;98929.09;4167991;28;20026;-74
2020/12/11 01:47:54;;;;;;;7.72;2.50;;;12.00;99.90;;;11.28;100.00;98926.47;4152918;28;20069;-73
2020/12/11 01:49:56;;;;;;;9.25;3.13;;;12.00;99.90;;;11.36;100.00;98918.31;4167889;28;20037;-74
2020/12/11 01:51:57;;;;;;;12.40;3.30;;;12.00;99.90;;;11.28;100.00;98921.19;4167740;28;20025;-74
2020/12/11 01:53:59;;;;;;;5.78;2.15;;;12.00;99.90;;;11.34;100.00;98917.72;4152658;28;20030;-73
2020/12/11 01:56:01;;;;;;;9.75;2.38;;;12.00;99.90;;;11.33;100.00;98930.13;4167923;28;20025;-73
2020/12/11 01:58:13;;;;;;;3.97;1.98;;;12.00;99.90;;;11.28;100.00;98924.66;4158928;28;20037;-74
2020/12/11 02:00:21;;;;;;;7.70;2.15;;;12.00;99.90;;;11.29;100.00;98923.59;4151198;28;20036;-74
2020/12/11 02:02:22;;;;;;;11.25;2.63;;;12.00;99.90;;;11.22;100.00;98928.09;4155226;28;20042;-74
2020/12/11 02:04:23;;;;;;;6.53;1.13;;;12.00;99.90;;;11.22;100.00;98948.41;4167541;28;20068;-74
2020/12/11 02:06:24;;;;;;;9.20;2.03;;;12.00;99.90;;;11.29;100.00;98942.09;4167193;28;20228;-74
2020/12/11 02:08:25;;;;;;;6.30;1.75;;;12.00;99.90;;;11.32;100.00;98946.16;4151136;28;20054;-74
2020/12/11 02:10:27;;;;;;;3.65;1.65;;;12.00;99.90;;;11.22;100.00;98929.94;4151184;28;20033;-74
2020/12/11 02:12:27;;;;;;;6.95;1.77;;;12.00;99.90;;;11.24;100.00;98943.72;4176526;28;20488;-74
2020/12/11 02:14:29;;;;;;;6.00;2.10;;;12.00;99.90;;;11.08;100.00;98937.00;4151037;28;20038;-74
2020/12/11 02:16:30;;;;;;;6.30;1.90;;;11.90;99.90;;;11.17;100.00;98927.88;4149882;28;20105;-74
2020/12/11 02:18:31;;;;;;;7.22;1.80;;;11.90;99.90;;;11.17;100.00;98946.34;4167566;28;20029;-74
2020/12/11 02:20:32;;;;;;;5.95;3.05;;;11.90;99.90;;;11.23;100.00;98947.41;4151215;28;20026;-74
2020/12/11 02:22:33;;;;;;;9.15;2.70;;;11.90;99.90;;;11.29;100.00;98949.22;4151268;28;20029;-74
2020/12/11 02:24:34;;;;;;;4.28;1.70;;;12.00;99.90;;;11.27;100.00;98961.78;4167298;28;20104;-74
2020/12/11 02:26:35;;;;;;;4.72;1.70;;;12.00;99.90;;;11.18;100.00;98947.16;4167428;28;20057;-74
2020/12/11 02:28:36;;;;;;;5.63;2.33;;;12.00;99.90;;;11.24;100.00;98955.09;4150852;28;20437;-74
2020/12/11 02:30:38;;;;;;;10.32;2.83;;;11.90;99.90;;;11.16;100.00;98979.06;4150947;28;20418;-74
2020/12/11 02:32:38;;;;;;;4.75;2.75;;;11.90;99.90;;;11.11;100.00;98969.09;4134388;28;20026;-74
2020/12/11 02:34:43;;;;;;;6.32;3.00;;;11.90;99.90;;;11.05;100.00;98963.84;4151259;28;20046;-74
2020/12/11 02:36:44;;;;;;;6.65;2.88;;;11.90;99.90;;;11.02;100.00;98951.84;4158624;28;20031;-74
2020/12/11 02:38:45;;;;;;;5.72;3.03;;;11.90;99.90;;;11.11;100.00;98945.34;4167193;28;20029;-74
2020/12/11 02:40:52;;;;;;;4.57;2.22;;;11.90;99.90;;;11.25;100.00;98950.63;4166997;28;20017;-74
2020/12/11 02:42:53;;;;;;;6.38;2.97;;;11.90;99.90;;;11.24;100.00;98927.88;4166880;28;20045;-74
2020/12/11 02:44:54;;;;;;;4.95;1.80;;;12.00;99.90;;;11.18;100.00;98933.97;4151113;28;20022;-74
2020/12/11 02:46:55;;;;;;;7.07;1.80;;;11.90;99.90;;;11.14;100.00;98922.22;4150862;28;20525;-74
2020/12/11 02:48:56;;;;;;;4.78;2.10;;;11.90;99.90;;;10.99;100.00;98915.31;4152596;28;20100;-74
2020/12/11 02:50:58;;;;;;;7.32;2.10;;;11.90;99.90;;;11.01;100.00;98923.84;4151025;28;20568;-74
2020/12/11 02:52:59;;;;;;;4.93;2.20;;;11.80;99.90;;;11.09;100.00;98928.91;4167329;28;20033;-74
2020/12/11 02:55:00;;;;;;;4.22;2.10;;;11.80;99.90;;;11.03;100.00;98931.53;4167161;28;20103;-74
2020/12/11 02:57:01;;;;;;;9.90;2.60;;;11.80;99.90;;;11.13;100.00;98926.69;4150554;28;20041;-73
2020/12/11 02:59:02;;;;;;;7.85;3.30;;;11.80;99.90;;;11.16;100.00;98922.81;4151858;28;20131;-74
2020/12/11 03:01:03;;;;;;;4.53;2.40;;;11.80;99.90;;;11.08;100.00;98929.09;4167145;28;20120;-74
2020/12/11 03:03:04;;;;;;;5.70;2.60;;;11.80;99.90;;;11.08;100.00;98908.81;4150804;28;20026;-74
2020/12/11 03:05:04;;;;;;;5.13;3.10;;;11.80;99.90;;;11.11;100.00;98916.31;4152010;28;20115;-74
2020/12/11 03:07:05;;;;;;;7.32;2.55;;;11.80;99.90;;;11.13;100.00;98926.69;4152077;28;20026;-73
2020/12/11 03:09:06;;;;;;;7.22;2.55;;;11.80;99.90;;;11.03;100.00;98921.00;4167186;28;20036;-74
2020/12/11 03:11:07;;;;;;;6.20;2.63;;;11.70;99.90;;;11.06;100.00;98910.03;4151048;28;20030;-74
2020/12/11 03:13:08;;;;;;;3.78;2.05;;;11.80;99.90;;;10.90;100.00;98905.97;4146859;28;20104;-73
2020/12/11 03:15:09;;;;;;;2.85;1.75;;;11.80;99.90;;;10.89;100.00;98904.34;4152153;28;20056;-74
2020/12/11 03:17:10;;;;;;;2.78;1.70;;;11.80;99.90;;;10.95;100.00;98893.00;4154151;28;20037;-74
2020/12/11 03:19:11;;;;;;;4.90;1.73;;;11.70;99.90;;;11.01;100.00;98908.00;4170499;28;20042;-73
2020/12/11 03:21:13;;;;;;;5.13;2.40;;;11.80;99.90;;;11.01;100.00;98915.13;4155154;28;20057;-74
2020/12/11 03:23:14;;;;;;;4.72;2.22;;;11.80;99.90;;;10.93;100.00;98905.56;4170292;28;20138;-74
2020/12/11 03:25:15;;;;;;;6.75;3.00;;;11.80;99.90;;;11.03;100.00;98923.63;4170474;28;20022;-74
2020/12/11 03:27:16;;;;;;;6.70;3.10;;;11.80;99.90;;;11.02;100.00;98924.66;4155149;28;20030;-74
2020/12/11 03:29:16;;;;;;;10.05;2.80;;;11.80;99.90;;;10.98;100.00;98905.78;4154785;28;20144;-74
2020/12/11 03:31:18;;;;;;;6.43;3.03;;;11.80;99.90;;;11.01;100.00;98910.66;4170303;28;20093;-74
2020/12/11 03:33:19;;;;;;;5.70;2.90;;;11.80;99.90;;;11.05;100.00;98914.50;4168905;28;20614;-74
2020/12/11 03:35:21;;;;;;;8.23;3.47;;;11.80;99.90;;;11.09;100.00;98910.44;4153905;28;20068;-74
2020/12/11 03:37:21;;;;;;;7.28;2.83;;;11.80;99.90;;;11.00;100.00;98914.28;4150067;28;20572;-74
2020/12/11 03:39:22;;;;;;;4.75;2.53;;;11.70;99.90;;;10.97;100.00;98906.78;4153732;28;20100;-74
2020/12/11 03:41:23;;;;;;;5.63;3.05;;;11.60;99.90;;;11.11;100.00;98908.41;4137372;28;20124;-74
2020/12/11 03:43:24;;;;;;;5.63;2.38;;;11.70;99.90;;;10.97;100.00;98909.44;4153319;28;20131;-74
2020/12/11 03:45:25;;;;;;;5.18;2.88;;;11.70;99.90;;;10.92;100.00;98893.41;4153402;28;20029;-74
2020/12/11 03:47:30;;;;;;;7.45;2.40;;;11.70;99.90;;;11.03;100.00;98913.88;4169407;28;20503;-74
2020/12/11 03:49:31;;;;;;;7.10;2.33;;;11.70;99.90;;;11.08;100.00;98914.09;4170009;28;20025;-74
2020/12/11 03:51:32;;;;;;;7.15;2.75;;;11.70;99.90;;;11.15;100.00;98903.53;4169881;28;20029;-74
2020/12/11 03:53:33;;;;;;;12.15;4.50;;;11.70;99.90;;;11.15;100.00;98894.78;4153287;28;20034;-74
2020/12/11 03:55:34;;;;;;;11.02;3.95;;;11.70;99.90;;;11.16;100.00;98891.16;4150152;28;20156;-74
2020/12/11 03:57:35;;;;;;;10.18;4.57;;;11.80;99.90;;;11.15;100.00;98892.16;4153234;28;20117;-73
2020/12/11 03:59:36;;;;;;;11.65;5.03;;;11.80;99.90;;;11.06;100.00;98889.75;4153482;28;20080;-74
2020/12/11 04:01:37;;;;;;;10.63;3.15;;;11.80;99.90;;;11.06;100.00;98883.66;4153273;28;20026;-74
2020/12/11 04:03:38;;;;;;;7.25;2.30;;;11.80;99.90;;;11.04;100.00;98869.84;4155134;28;20034;-74
2020/12/11 04:05:39;;;;;;;8.90;2.83;;;11.80;99.90;;;11.21;100.00;98886.06;4173989;28;20024;-74
2020/12/11 04:07:40;;;;;;;6.30;3.00;;;11.90;99.90;;;11.16;100.00;98883.22;4162229;28;20122;-73
2020/12/11 04:09:41;;;;;;;11.02;3.10;;;11.90;99.90;;;11.18;100.00;98889.94;4153121;28;20453;-73
2020/12/11 04:11:42;;;;;;;8.77;1.90;;;11.90;99.90;;;11.10;100.00;98885.69;4153158;28;20558;-74
2020/12/11 04:13:43;;;;;;;6.20;2.80;;;11.90;99.90;;;11.02;100.00;98885.88;4151977;28;20045;-74
2020/12/11 04:15:44;;;;;;;8.18;2.20;;;11.80;99.90;;;11.06;100.00;98896.84;4152119;28;20112;-74
2020/12/11 04:17:45;;;;;;;8.32;2.35;;;11.90;99.90;;;11.03;100.00;98890.16;4152166;28;20480;-74
2020/12/11 04:19:46;;;;;;;12.13;3.13;;;11.80;99.90;;;11.21;100.00;98896.63;4166057;28;20489;-74
2020/12/11 04:21:52;;;;;;;13.75;4.05;;;11.80;99.90;;;11.29;100.00;98901.72;4151970;28;20060;-74
2020/12/11 04:23:52;;;;;;;19.27;4.15;;;11.90;99.90;;;11.18;100.00;98897.03;4168528;28;20029;-74
2020/12/11 04:25:54;;;;;;;11.27;3.83;;;11.90;99.90;;;11.20;100.00;98895.00;4151943;28;20033;-74
2020/12/11 04:27:55;;;;;;;15.10;4.00;;;11.90;99.90;;;11.23;100.00;98894.59;4168857;28;20061;-73
2020/12/11 04:29:56;;;;;;;13.07;3.80;;;11.90;99.90;;;11.18;100.00;98889.94;4163377;28;20018;-73
2020/12/11 04:32:00;;;;;;;16.08;4.35;;;11.90;99.90;;;11.23;100.00;98884.06;4143687;28;20059;-73
2020/12/11 04:34:01;;;;;;;14.88;4.13;;;12.00;99.90;;;11.18;100.00;98891.75;4135666;28;20461;-73
2020/12/11 04:36:02;;;;;;;19.85;4.93;;;12.00;99.90;;;11.15;100.00;98892.16;4151982;28;20042;-73
2020/12/11 04:38:04;;;;;;;21.67;5.28;;;12.00;99.90;;;11.27;100.00;98888.69;4168381;28;20420;-73
2020/12/11 04:40:05;;;;;;;18.48;4.00;;;12.00;99.90;;;11.25;100.00;98882.00;4168263;28;20108;-74
2020/12/11 04:42:07;;;;;;;19.88;4.05;;;12.00;99.90;;;11.31;100.00;98886.47;4151668;28;20100;-73
2020/12/11 04:44:08;;;;;;;17.85;4.00;;;12.00;99.90;;;11.23;100.00;98873.50;4167793;28;20048;-73
2020/12/11 04:46:09;;;;;;;16.67;4.07;;;12.00;99.90;;;11.04;100.00;98864.56;4168174;28;20025;-73
2020/12/11 04:48:11;;;;;;;22.60;3.40;;;12.00;99.90;;;11.10;100.00;98867.22;4168214;28;20025;-73
2020/12/11 04:50:17;;;;;;;19.65;3.40;;;11.90;99.90;;;11.19;100.00;98872.28;4168049;28;20061;-73
2020/12/11 04:52:21;;;;;;;18.27;2.88;;;11.90;99.90;;;11.10;100.00;98872.50;4151548;28;20412;-74
2020/12/11 04:54:23;;;;;;;20.73;3.65;;;11.90;99.90;;;11.21;100.00;98868.41;4167664;28;20058;-74
2020/12/11 04:56:25;;;;;;;17.27;3.45;;;11.90;99.90;;;11.15;100.00;98866.59;4167907;28;20100;-73
2020/12/11 04:58:29;;;;;;;15.25;4.18;;;11.90;99.90;;;11.13;100.00;98875.72;4156078;28;20038;-74
2020/12/11 05:00:30;;;;;;;17.27;4.95;;;11.80;99.90;;;11.10;100.00;98864.56;4151001;28;20104;-74
2020/12/11 05:02:32;;;;;;;17.38;5.15;;;11.80;99.90;;;11.18;100.00;98875.91;4140500;28;20038;-74
2020/12/11 05:04:33;;;;;;;21.00;4.40;;;11.80;99.90;;;11.10;100.00;98869.84;4151549;28;20108;-74
2020/12/11 05:06:34;;;;;;;24.83;4.32;;;11.80;99.90;;;11.13;100.00;98863.34;4167778;28;20611;-73
2020/12/11 05:08:34;;;;;;;23.02;5.40;;;11.80;99.90;;;11.15;100.00;98873.69;4151392;28;20422;-74
2020/12/11 05:10:40;;;;;;;20.63;4.60;;;11.80;99.90;;;11.15;100.00;98860.50;4152750;28;20021;-74
2020/12/11 05:12:41;;;;;;;23.67;4.60;;;11.90;99.90;;;11.14;100.00;98848.34;4140549;28;776656;-73
2020/12/11 05:14:42;;;;;;;11.70;3.00;;;11.90;99.90;;;11.08;100.00;98844.66;4168713;28;20044;-74
2020/12/11 05:17:05;;;;;;;15.30;3.13;;;11.90;99.90;;;11.23;100.00;98841.81;4151983;28;20537;-74
2020/12/11 05:19:06;;;;;;;17.17;3.25;;;11.90;99.90;;;11.14;100.00;98840.41;4153333;28;20042;-74
2020/12/11 05:21:21;;;;;;;19.15;3.47;;;11.80;99.90;;;11.15;100.00;98847.28;4168535;28;20034;-74
2020/12/11 05:23:22;;;;;;;21.63;4.95;;;11.80;99.90;;;11.24;100.00;98835.50;4156324;28;20029;-74
2020/12/11 05:25:23;;;;;;;18.15;3.47;;;11.90;99.90;;;11.13;100.00;98822.94;4168533;28;20021;-74
2020/12/11 05:27:39;;;;;;;19.02;4.28;;;11.90;99.90;;;11.31;100.00;98849.50;4153297;28;20034;-74
2020/12/11 05:29:40;;;;;;;22.10;3.58;;;11.90;99.90;;;11.27;100.00;98833.28;4155174;28;20397;-74
2020/12/11 05:31:45;;;;;;;27.40;4.63;;;12.00;99.90;;;11.26;100.00;98830.84;4167854;28;20031;-74
2020/12/11 05:34:06;;;;;;;17.95;3.10;;;12.00;99.90;;;11.27;100.00;98835.09;4152047;28;20037;-74
2020/12/11 05:36:07;;;;;;;16.90;3.78;;;12.00;99.90;;;11.20;100.00;98821.91;4167733;28;20106;-74
2020/12/11 05:38:10;;;;;;;19.50;4.15;;;12.00;99.90;;;11.23;100.00;98829.41;4168284;28;20021;-74
2020/12/11 05:40:26;;;;;;;22.30;4.40;;;12.00;99.90;;;11.27;100.00;98832.47;4167285;28;20025;-74
2020/12/11 05:42:27;;;;;;;25.42;5.20;;;12.00;99.90;;;11.28;100.00;98819.06;4167540;28;20029;-74
2020/12/11 05:44:34;;;;;;;18.85;4.15;;;12.00;99.90;;;11.31;100.00;98825.75;4168037;28;20060;-74
2020/12/11 05:46:35;;;;;;;25.35;4.97;;;12.00;99.90;;;11.35;100.00;98811.13;4168002;28;20026;-74
2020/12/11 05:48:39;;;;;;;22.42;3.92;;;12.00;99.90;;;11.49;100.00;98815.34;4152928;28;20033;-75
2020/12/11 05:50:40;;;;;;;27.25;4.50;;;12.10;99.90;;;11.35;100.00;98816.41;4168240;28;20539;-74
2020/12/11 05:52:41;;;;;;;25.55;4.85;;;12.10;99.90;;;11.35;100.00;98817.19;4152959;28;20037;-74
2020/12/11 05:54:54;;;;;;;23.80;4.65;;;12.10;99.90;;;11.36;100.00;98818.00;4167963;28;20022;-74
2020/12/11 05:56:55;;;;;;;18.30;4.18;;;12.10;99.90;;;11.26;100.00;98804.47;4167698;28;20026;-74
2020/12/11 05:58:57;;;;;;;31.50;5.75;;;12.00;99.90;;;11.26;100.00;98810.53;4137995;28;20038;-74
2020/12/11 06:00:58;;;;;;;20.90;3.92;;;12.00;99.90;;;11.27;100.00;98808.69;4157442;28;20033;-74
2020/12/11 06:03:00;;;;;;;25.88;5.15;;;12.00;99.90;;;11.21;100.00;98820.91;4167805;28;20052;-73
2020/12/11 06:05:01;;;;;;;22.80;4.28;;;12.00;99.90;;;11.21;100.00;98812.16;4135214;28;20070;-74
2020/12/11 06:07:09;;;;;;;22.25;4.30;;;12.00;99.90;;;11.25;100.00;98813.38;4137916;28;20088;-74
2020/12/11 06:09:13;;;;;;;21.45;3.30;;;12.00;99.90;;;11.18;100.00;98800.19;4151581;28;20030;-73
2020/12/11 06:11:22;;;;;;;20.42;3.95;;;12.00;99.90;;;11.15;100.00;98795.34;4167799;28;20100;-73
2020/12/11 06:13:38;;;;;;;20.05;4.00;;;12.00;99.90;;;11.14;100.00;98804.25;4152054;28;20057;-74
2020/12/11 06:15:47;;;;;;;22.33;3.42;;;12.00;99.90;;;11.24;100.00;98807.28;4167096;28;20037;-74
2020/12/11 06:18:04;;;;;;;17.25;3.10;;;12.00;99.90;;;11.24;100.00;98841.59;4167253;28;20356;-74
2020/12/11 06:20:08;;;;;;;14.48;3.10;;;12.00;99.90;;;11.16;100.00;98831.28;4152510;28;20079;-73
2020/12/11 06:22:10;;;;;;;12.20;3.30;;;11.90;99.90;;;11.20;100.00;98831.69;4152387;28;20030;-73
2020/12/11 06:24:30;;;;;;;11.23;3.00;;;11.90;99.90;;;11.13;100.00;98828.22;4167636;28;20030;-73
2020/12/11 06:26:31;;;;;;;18.60;2.90;;;11.90;99.90;;;11.04;100.00;98796.78;4154616;28;20026;-74
2020/12/11 06:28:49;;;;;;;12.57;3.13;;;11.90;99.90;;;11.06;100.00;98807.94;4150918;28;20036;-73
2020/12/11 06:30:54;;;;;;;16.05;3.47;;;11.90;99.90;;;11.06;100.00;98810.59;4151335;28;20025;-73
2020/12/11 06:32:56;;;;;;;17.02;3.97;;;11.90;99.90;;;11.09;100.00;98810.16;4166122;28;20076;-74
2020/12/11 06:35:17;;;;;;;14.82;3.67;;;11.80;99.90;;;11.08;100.00;98813.00;4151240;28;20038;-74
2020/12/11 06:37:37;;;;;;;9.13;2.40;;;11.80;99.90;;;11.21;100.00;98830.63;4139226;28;20034;-74
2020/12/11 06:39:45;;;;;;;15.23;2.67;;;11.80;99.90;;;11.06;100.00;98815.84;4148691;28;20108;-74
2020/12/11 06:41:46;;;;;;;13.23;2.72;;;11.80;99.90;;;10.93;100.00;98804.53;4150609;28;20030;-74
2020/12/11 06:43:47;;;;;;;11.13;3.33;;;11.80;99.90;;;10.95;100.00;98808.59;4167085;28;20049;-74
2020/12/11 06:46:17;;;;;;;14.02;3.67;;;11.70;99.90;;;10.91;100.00;98833.75;4150939;28;20595;-75
2020/12/11 06:48:18;;;;;;;13.40;3.05;;;11.80;99.90;;;10.92;100.00;98834.56;4151078;28;20025;-74
2020/12/11 06:50:21;;;;;;;14.82;3.60;;;11.70;99.90;;;10.82;100.00;98821.78;4151940;28;20034;-74
2020/12/11 06:52:32;;;;;;;11.10;3.33;;;11.70;99.90;;;10.83;100.00;98831.31;4167064;28;20029;-74
2020/12/11 06:54:33;;;;;;;12.68;3.15;;;11.70;99.90;;;11.00;100.00;98835.16;4167100;28;20139;-73
2020/12/11 06:56:45;;;;;;;14.85;3.65;;;11.60;99.90;;;10.91;100.00;98836.38;4150723;28;20041;-73
2020/12/11 06:58:45;;;;;;;12.35;3.65;;;11.70;99.90;;;10.89;100.00;98827.06;4135315;28;20429;-73
2020/12/11 07:00:54;;;;;;;14.40;3.15;;;11.70;99.90;;;10.93;100.00;98826.41;4151999;28;20029;-73
2020/12/11 07:03:22;;;;;;;16.67;4.47;;;11.70;99.90;;;10.94;100.00;98822.78;4166882;28;20017;-74
2020/12/11 07:05:22;;;;;;;15.88;4.07;;;11.70;99.90;;;10.91;100.00;98817.91;4151845;28;20405;-74
2020/12/11 07:07:30;;;;;;;18.83;4.80;;;11.70;99.90;;;10.93;100.00;98807.16;4151720;28;20029;-73
2020/12/11 07:09:37;;;;;;;21.88;3.75;;;11.70;99.90;;;10.94;100.00;98812.22;4150344;28;20034;-73
2020/12/11 07:11:38;;;;;;;15.35;3.67;;;11.70;99.90;;;10.92;100.00;98806.34;4150525;28;20033;-74
2020/12/11 07:13:46;;;;;;;17.50;5.70;;;11.70;99.90;;;10.93;100.00;98805.31;4166486;28;20049;-73
2020/12/11 07:15:57;;;;;;;22.27;5.10;;;11.60;99.90;;;10.90;100.00;98803.09;4166697;28;20025;-74
2020/12/11 07:17:58;;;;;;;19.38;4.93;;;11.60;99.90;;;10.95;100.00;98797.22;4151746;28;20072;-73
2020/12/11 07:20:00;;;;;;;18.00;4.50;;;11.60;99.90;;;10.93;100.00;98809.81;4166739;28;20425;-74
2020/12/11 07:22:05;;;;;;;22.15;5.55;;;11.60;99.90;;;11.02;100.00;98803.31;4166892;28;20025;-73
2020/12/11 07:24:08;;;;;;;17.25;3.85;;;11.60;99.90;;;11.01;100.00;98802.47;4150434;28;20034;-74
2020/12/11 07:26:09;;;;;;;33.10;6.78;;;11.60;99.90;;;10.93;100.00;98800.03;4150393;28;20037;-73
2020/12/11 07:28:10;;;;;;;35.10;8.13;;;11.60;99.90;;;10.95;100.00;98797.22;4166658;28;20025;-74
2020/12/11 07:30:17;;;;;;;35.90;9.57;;;11.70;99.90;;;10.99;100.00;98783.38;4151468;28;20065;-73
2020/12/11 07:32:22;;;;;;;33.88;6.30;;;11.70;99.90;;;11.03;100.00;98792.53;4165516;28;20033;-74
2020/12/11 07:34:27;;;;;;;27.00;4.95;;;11.70;99.90;;;11.06;100.00;98784.19;4134053;28;20041;-74
2020/12/11 07:36:28;;;;;;;32.33;5.93;;;11.70;99.90;;;10.96;100.00;98767.19;4150473;28;20022;-73
2020/12/11 07:38:31;;;;;;;35.33;5.28;;;11.70;99.90;;;10.97;100.00;98774.88;4150226;28;20651;-73
2020/12/11 07:40:33;;;;;;;26.38;6.45;;;11.70;99.90;;;10.93;100.00;98767.59;4151584;28;20056;-73
2020/12/11 07:42:35;;;;;;;29.75;6.05;;;11.70;99.90;;;11.01;100.00;98770.81;4166167;28;20041;-72
2020/12/11 07:44:38;;;;;;;48.10;8.23;;;11.80;99.90;;;11.02;100.00;98761.88;4166811;28;20434;-72
2020/12/11 07:46:42;;;;;;;38.60;6.85;;;11.80;99.90;;;10.96;100.00;98754.78;4166533;28;20030;-72
2020/12/11 07:48:50;;;;;;;31.52;6.55;;;11.80;99.90;;;10.89;100.00;98763.75;4165504;28;20036;-72
2020/12/11 07:50:51;;;;;;;37.35;5.88;;;11.80;99.90;;;10.99;100.00;98766.78;4166210;28;20025;-72
2020/12/11 07:52:55;;;;;;;41.80;9.02;;;11.70;99.90;;;10.95;100.00;98766.38;4166257;28;20029;-72
2020/12/11 07:54:56;;;;;;;28.67;6.07;;;11.70;99.90;;;10.81;100.00;98759.47;4166081;28;20068;-72
2020/12/11 07:57:17;;;;;;;35.13;6.15;;;11.70;99.90;;;10.76;100.00;98764.56;4165851;28;20029;-72
2020/12/11 07:59:18;;;;;;;38.42;6.28;;;11.70;99.90;;;10.75;100.00;98768.22;4164835;28;20033;-72
2020/12/11 08:01:19;;;;;;;35.78;6.80;;;11.70;99.90;;;10.81;100.00;98756.84;4150895;28;20041;-72
2020/12/11 08:03:25;;;;;;;35.78;6.05;;;11.60;99.90;;;10.93;100.00;98765.75;4166796;28;20025;-72
2020/12/11 08:05:26;;;;;;;38.13;6.93;;;11.60;99.90;;;10.81;100.00;98751.56;4154095;28;20026;-72
2020/12/11 08:07:30;;;;;;;37.45;7.13;;;11.70;99.90;;;10.80;100.00;98751.78;4169572;28;20491;-72
2020/12/11 08:09:32;;;;;;;42.30;6.40;;;11.70;99.90;;;10.86;100.00;98751.78;4169300;28;20025;-72
2020/12/11 08:11:33;;;;;;;28.10;6.38;;;11.70;99.90;;;10.92;100.00;98753.59;4153038;28;20045;-72
2020/12/11 08:13:34;;;;;;;38.95;6.72;;;11.70;99.90;;;10.89;100.00;98735.53;4169013;28;20045;-72
2020/12/11 08:15:36;;;;;;;28.95;7.32;;;11.70;99.90;;;10.84;100.00;98732.69;4153045;28;20064;-72
2020/12/11 08:17:38;;;;;;;32.00;6.20;;;11.70;99.90;;;10.87;100.00;98748.09;4154130;28;20026;-72
2020/12/11 08:19:40;;;;;;;38.13;8.20;;;11.70;99.90;;;10.87;100.00;98739.41;4169165;28;20095;-72
2020/12/11 08:21:41;;;;;;;36.17;7.65;;;11.70;99.90;;;10.89;100.00;98746.09;4169326;28;20107;-72
2020/12/11 08:23:43;;;;;;;33.10;6.18;;;11.70;99.90;;;10.80;100.00;98743.88;4153995;28;20038;-72
2020/12/11 08:25:44;;;;;;;34.78;7.15;;;11.70;99.90;;;10.92;100.00;98758.06;4153948;28;20026;-71
2020/12/11 08:27:46;;;;;;;32.63;7.07;;;11.70;99.90;;;10.81;100.00;98770.03;4153508;28;20026;-72